Time;durP1;ratioP1;P1;durP2;ratioP2;P2;SDS_P1;SDS_P2;PMS_P1;PMS_P2;Temp;Humidity;BMP_temperature;BMP_pressure;BME280_temperature;BME280_humidity;BME280_pressure;Samples;Min_cycle;Max_cycle;Signal;HPM_P1;HPM_P2
2023/08/02 04:32:26;;;;;;;2.80;0.50;;;19.80;92.10;;;;;;4911146;23;20064;-77
2023/08/02 04:34:51;;;;;;;2.03;0.50;;;19.80;92.10;;;;;;4881068;29;20037;-78
2023/08/02 04:37:17;;;;;;;1.25;0.50;;;19.80;92.10;;;;;;4866298;29;20067;-77
2023/08/02 04:39:42;;;;;;;0.98;0.50;;;19.80;92.10;;;;;;4866475;29;20488;-77
2023/08/02 04:42:08;;;;;;;1.02;0.50;;;19.80;92.00;;;;;;4883175;29;20037;-77
2023/08/02 04:44:34;;;;;;;1.90;0.68;;;19.80;92.10;;;;;;4883194;29;20033;-77
2023/08/02 04:46:59;;;;;;;0.85;0.40;;;19.80;92.20;;;;;;4866455;29;20054;-77
2023/08/02 04:49:25;;;;;;;2.22;0.63;;;19.70;91.90;;;;;;4882933;29;20061;-77
2023/08/02 04:51:50;;;;;;;1.63;0.57;;;19.70;91.80;;;;;;4883019;29;20040;-77
2023/08/02 04:54:16;;;;;;;1.23;0.50;;;19.80;91.80;;;;;;4883144;29;20025;-77
2023/08/02 04:56:41;;;;;;;1.33;0.50;;;19.80;91.70;;;;;;4883091;29;20037;-77
2023/08/02 04:59:07;;;;;;;3.00;0.45;;;19.70;91.70;;;;;;4883217;29;20389;-77
2023/08/02 05:01:33;;;;;;;2.58;0.60;;;19.60;91.20;;;;;;4883199;29;20064;-77
2023/08/02 05:03:58;;;;;;;1.60;0.60;;;19.60;91.60;;;;;;4883334;29;20040;-77
2023/08/02 05:06:24;;;;;;;2.50;0.70;;;19.60;91.60;;;;;;4866168;29;20060;-77
2023/08/02 05:08:50;;;;;;;6.15;0.80;;;19.50;90.80;;;;;;4883494;29;20025;-77
2023/08/02 05:11:15;;;;;;;8.30;1.10;;;19.50;91.00;;;;;;4866551;29;20476;-78
2023/08/02 05:13:41;;;;;;;6.10;1.13;;;19.50;90.90;;;;;;4885608;29;20053;-77
2023/08/02 05:16:13;;;;;;;5.50;1.00;;;19.40;91.00;;;;;;4883522;29;20029;-77
2023/08/02 05:18:39;;;;;;;4.95;0.82;;;19.30;90.40;;;;;;4883341;29;20025;-77
2023/08/02 05:21:14;;;;;;;6.85;1.30;;;19.30;91.00;;;;;;4883430;29;20025;-77
2023/08/02 05:23:40;;;;;;;13.05;1.50;;;19.20;90.40;;;;;;4885397;29;20033;-77
2023/08/02 05:26:07;;;;;;;14.70;1.65;;;19.20;90.40;;;;;;4886860;29;20043;-77
2023/08/02 05:28:33;;;;;;;11.55;1.67;;;19.10;89.80;;;;;;4886724;29;20032;-77
2023/08/02 05:30:59;;;;;;;8.95;1.73;;;19.10;89.40;;;;;;4885122;29;20060;-77
2023/08/02 05:33:24;;;;;;;13.48;1.58;;;19.00;89.50;;;;;;4885171;29;20045;-77
2023/08/02 05:35:50;;;;;;;11.13;1.80;;;18.90;89.50;;;;;;4879888;29;20029;-77
2023/08/02 05:38:16;;;;;;;14.98;1.88;;;18.80;88.50;;;;;;4886477;29;20123;-77
2023/08/02 05:40:41;;;;;;;16.48;2.88;;;18.80;88.70;;;;;;4886743;29;20383;-78
2023/08/02 05:43:07;;;;;;;12.13;2.08;;;18.90;89.20;;;;;;4886368;29;20033;-77
2023/08/02 05:45:33;;;;;;;21.95;2.65;;;18.80;89.60;;;;;;4886460;29;20025;-77
2023/08/02 05:47:58;;;;;;;13.40;2.63;;;19.00;89.20;;;;;;4886528;29;20092;-77
2023/08/02 05:50:24;;;;;;;12.90;2.13;;;18.90;88.90;;;;;;4886360;29;20069;-77
2023/08/02 05:52:50;;;;;;;16.75;2.95;;;19.00;88.70;;;;;;4886124;29;20036;-77
2023/08/02 05:55:16;;;;;;;26.33;2.95;;;18.90;87.60;;;;;;4886258;29;20052;-78
2023/08/02 05:57:41;;;;;;;17.20;2.92;;;18.80;88.40;;;;;;4886595;29;20032;-77
2023/08/02 06:00:08;;;;;;;26.63;3.75;;;18.80;87.80;;;;;;4884087;29;20429;-77
2023/08/02 06:02:35;;;;;;;22.13;3.28;;;18.80;88.30;;;;;;4903869;29;20096;-77
2023/08/02 06:05:00;;;;;;;26.40;3.90;;;18.70;87.90;;;;;;4902717;29;20387;-77
2023/08/02 06:07:26;;;;;;;19.27;3.10;;;18.70;87.70;;;;;;4885940;29;20104;-78
2023/08/02 06:09:52;;;;;;;24.42;3.78;;;18.70;87.70;;;;;;4885967;29;20033;-77
2023/08/02 06:12:17;;;;;;;28.55;3.65;;;18.80;88.00;;;;;;4885926;29;20101;-77
2023/08/02 06:14:43;;;;;;;22.73;3.75;;;18.80;86.70;;;;;;4885852;29;20104;-77
2023/08/02 06:17:08;;;;;;;22.25;3.30;;;18.80;86.60;;;;;;4885982;29;20552;-77
2023/08/02 06:19:34;;;;;;;24.55;3.72;;;18.70;86.10;;;;;;4885751;29;20434;-77
2023/08/02 06:22:00;;;;;;;19.55;3.53;;;18.70;86.90;;;;;;4885720;29;20055;-78
2023/08/02 06:24:25;;;;;;;36.17;4.07;;;18.60;85.90;;;;;;4869019;29;20041;-77
2023/08/02 06:26:51;;;;;;;25.38;3.65;;;18.60;86.20;;;;;;4885802;29;20025;-78
2023/08/02 06:29:16;;;;;;;17.88;3.17;;;18.70;86.60;;;;;;4885696;29;20065;-77
2023/08/02 06:31:42;;;;;;;24.00;3.85;;;18.80;86.60;;;;;;4885483;29;20064;-77
2023/08/02 06:34:08;;;;;;;19.40;3.45;;;18.90;86.30;;;;;;4884475;29;20035;-77
2023/08/02 06:36:34;;;;;;;30.23;4.50;;;18.90;86.40;;;;;;4885334;29;20029;-77
2023/08/02 06:39:00;;;;;;;27.05;4.20;;;18.90;85.40;;;;;;4885493;29;20028;-78
2023/08/02 06:41:25;;;;;;;22.00;3.72;;;18.90;84.40;;;;;;4885318;29;20488;-77
2023/08/02 06:43:51;;;;;;;17.75;2.65;;;18.80;84.60;;;;;;4885445;29;20040;-77
2023/08/02 06:46:16;;;;;;;25.33;4.10;;;18.80;83.40;;;;;;4885373;29;20031;-77
2023/08/02 06:48:42;;;;;;;24.50;3.35;;;18.70;85.10;;;;;;4885271;29;20037;-77
2023/08/02 06:51:13;;;;;;;20.00;3.78;;;18.80;85.60;;;;;;4868422;29;20025;-77
2023/08/02 06:53:39;;;;;;;15.30;3.38;;;18.70;84.50;;;;;;4868395;29;20037;-77
2023/08/02 06:56:16;;;;;;;19.98;3.50;;;18.70;83.00;;;;;;4885213;29;20121;-77
2023/08/02 06:58:44;;;;;;;23.00;2.78;;;18.70;84.20;;;;;;4885253;29;20057;-78
2023/08/02 07:01:18;;;;;;;26.40;3.88;;;18.70;82.40;;;;;;4884732;29;20081;-77
2023/08/02 07:03:44;;;;;;;15.75;2.40;;;18.80;82.30;;;;;;4885060;29;20033;-77
2023/08/02 07:06:14;;;;;;;19.95;3.17;;;18.80;82.30;;;;;;4873921;29;20074;-77
2023/08/02 07:08:41;;;;;;;22.52;3.92;;;18.80;82.90;;;;;;4866241;29;20033;-77
2023/08/02 07:11:07;;;;;;;18.88;2.78;;;19.10;82.40;;;;;;4866352;29;20029;-77
2023/08/02 07:13:34;;;;;;;22.08;3.40;;;19.10;81.20;;;;;;4866194;29;20393;-77
2023/08/02 07:16:00;;;;;;;25.85;3.08;;;19.20;82.60;;;;;;4866285;29;20032;-77
2023/08/02 07:18:26;;;;;;;25.67;3.42;;;19.30;81.50;;;;;;4883307;29;20104;-77
2023/08/02 07:20:51;;;;;;;14.73;2.60;;;19.20;80.70;;;;;;4884693;29;20033;-77
2023/08/02 07:23:17;;;;;;;13.07;2.28;;;19.00;80.00;;;;;;4884558;29;20044;-77
2023/08/02 07:25:42;;;;;;;18.02;2.30;;;19.00;80.70;;;;;;4884945;29;20025;-77
2023/08/02 07:28:08;;;;;;;19.92;2.85;;;19.00;81.30;;;;;;4884622;29;20037;-78
2023/08/02 07:30:33;;;;;;;16.65;2.47;;;19.20;81.10;;;;;;4884360;29;20052;-77
2023/08/02 07:32:59;;;;;;;20.45;2.50;;;19.20;79.60;;;;;;4884494;29;20040;-77
2023/08/02 07:35:25;;;;;;;21.08;2.55;;;19.40;78.90;;;;;;4879262;29;20026;-78
2023/08/02 07:37:50;;;;;;;17.05;2.83;;;20.60;78.20;;;;;;4865782;29;20033;-77
2023/08/02 07:40:16;;;;;;;23.38;2.75;;;21.70;74.20;;;;;;4865761;29;20117;-78
2023/08/02 07:42:42;;;;;;;15.38;2.47;;;22.80;70.10;;;;;;4865885;29;20033;-78
2023/08/02 07:45:09;;;;;;;28.23;3.22;;;22.20;68.40;;;;;;4865543;29;20022;-78
2023/08/02 07:47:36;;;;;;;21.02;3.53;;;21.50;70.20;;;;;;4865591;29;20030;-77
2023/08/02 07:50:02;;;;;;;14.77;2.20;;;20.90;72.10;;;;;;4865818;29;20061;-77
2023/08/02 07:52:28;;;;;;;23.00;3.30;;;20.50;73.60;;;;;;4865607;29;20446;-77
2023/08/02 07:54:54;;;;;;;23.45;2.30;;;20.20;74.30;;;;;;4865306;29;20037;-77
2023/08/02 07:57:22;;;;;;;17.15;2.25;;;19.90;75.10;;;;;;4865520;29;20463;-77
2023/08/02 07:59:47;;;;;;;16.95;2.63;;;19.60;75.50;;;;;;4868496;29;20023;-77
2023/08/02 08:02:13;;;;;;;21.70;4.07;;;19.50;76.10;;;;;;4867256;29;20065;-77
2023/08/02 08:04:39;;;;;;;17.95;2.47;;;19.40;76.80;;;;;;4884005;29;20036;-77
2023/08/02 08:07:04;;;;;;;13.98;2.38;;;19.40;77.00;;;;;;4883088;29;20500;-78
2023/08/02 08:09:30;;;;;;;17.23;3.03;;;19.80;76.30;;;;;;4885322;29;20017;-77
2023/08/02 08:11:56;;;;;;;14.35;2.75;;;20.00;74.90;;;;;;4883940;29;20033;-77
2023/08/02 08:14:22;;;;;;;22.83;3.70;;;20.70;74.30;;;;;;4883974;29;20079;-77
2023/08/02 08:16:47;;;;;;;16.60;2.47;;;21.80;71.80;;;;;;4883791;29;20029;-78
2023/08/02 08:19:14;;;;;;;24.98;2.53;;;23.00;65.70;;;;;;4883872;29;20067;-78
2023/08/02 08:21:39;;;;;;;29.38;2.67;;;24.30;62.40;;;;;;4883798;29;20101;-78
2023/08/02 08:24:06;;;;;;;22.25;4.18;;;24.30;60.30;;;;;;4883718;29;20029;-78
2023/08/02 08:26:32;;;;;;;19.80;2.88;;;24.50;60.50;;;;;;4866868;29;20055;-78
2023/08/02 08:28:57;;;;;;;19.98;3.30;;;25.40;56.90;;;;;;4883772;29;20025;-78
2023/08/02 08:31:23;;;;;;;18.85;2.92;;;27.00;55.20;;;;;;4883669;29;20060;-78
2023/08/02 08:33:49;;;;;;;17.23;3.42;;;28.00;51.00;;;;;;4866805;29;20028;-78
2023/08/02 08:36:15;;;;;;;19.00;3.00;;;29.10;48.20;;;;;;4883305;29;20088;-79
2023/08/02 08:38:41;;;;;;;18.35;2.83;;;29.30;46.00;;;;;;4883692;29;20100;-79
2023/08/02 08:41:06;;;;;;;18.23;4.82;;;29.40;43.00;;;;;;4883756;29;20381;-79
2023/08/02 08:43:33;;;;;;;18.52;5.35;;;28.70;44.10;;;;;;4883579;29;20085;-78
2023/08/02 08:45:59;;;;;;;16.63;4.90;;;27.60;46.80;;;;;;4883607;29;20116;-78
2023/08/02 08:48:26;;;;;;;20.50;2.58;;;28.20;45.50;;;;;;4883575;29;20071;-78
2023/08/02 08:50:55;;;;;;;15.57;2.20;;;27.90;47.30;;;;;;4866794;29;20484;-78
2023/08/02 08:53:31;;;;;;;11.52;2.00;;;26.40;47.80;;;;;;4883460;29;20064;-78
2023/08/02 08:55:58;;;;;;;17.05;2.13;;;25.00;50.60;;;;;;4883390;29;20033;-77
2023/08/02 08:58:24;;;;;;;14.75;1.88;;;24.30;53.00;;;;;;4887611;29;20547;-78
2023/08/02 09:00:52;;;;;;;14.70;2.40;;;23.80;54.50;;;;;;4887009;29;20076;-78
2023/08/02 09:03:18;;;;;;;18.30;2.40;;;23.10;55.80;;;;;;4887155;29;20029;-78
2023/08/02 09:05:43;;;;;;;12.70;2.05;;;22.50;56.90;;;;;;4879746;29;20069;-77
2023/08/02 09:08:09;;;;;;;13.60;1.75;;;22.20;57.70;;;;;;4868312;29;20465;-78
2023/08/02 09:10:35;;;;;;;18.92;2.83;;;21.90;59.00;;;;;;4875149;29;20037;-77
2023/08/02 09:13:00;;;;;;;15.93;2.00;;;22.00;61.00;;;;;;4886841;29;20025;-78
2023/08/02 09:15:26;;;;;;;12.50;1.60;;;22.00;59.80;;;;;;4887024;29;20152;-77
2023/08/02 09:17:54;;;;;;;15.27;1.83;;;21.90;59.80;;;;;;4887166;29;20076;-77
2023/08/02 09:20:24;;;;;;;16.80;2.65;;;21.80;60.40;;;;;;4886889;29;20056;-78
2023/08/02 09:22:51;;;;;;;12.77;1.90;;;21.70;60.60;;;;;;4885215;29;20112;-77
2023/08/02 09:25:26;;;;;;;12.93;1.77;;;21.60;60.40;;;;;;4886800;29;20503;-77
2023/08/02 09:27:54;;;;;;;10.02;1.40;;;21.90;58.50;;;;;;4886838;29;20054;-77
2023/08/02 09:30:28;;;;;;;12.88;2.00;;;22.10;58.50;;;;;;4886639;29;20107;-77
2023/08/02 09:33:09;;;;;;;16.52;2.38;;;22.30;57.70;;;;;;4886491;29;20025;-77
2023/08/02 09:35:52;;;;;;;10.15;1.35;;;22.90;57.20;;;;;;4880110;29;20048;-77
2023/08/02 09:38:18;;;;;;;10.98;1.75;;;23.00;56.30;;;;;;4868125;29;20433;-78
2023/08/02 09:40:47;;;;;;;13.73;2.55;;;23.00;56.20;;;;;;4868023;29;20030;-77
2023/08/02 09:43:14;;;;;;;17.38;2.30;;;22.70;56.20;;;;;;4867829;29;20026;-77
2023/08/02 09:45:40;;;;;;;14.27;1.95;;;22.60;57.20;;;;;;4867907;29;20025;-77
2023/08/02 09:48:06;;;;;;;10.23;1.52;;;22.30;57.10;;;;;;4868083;29;20384;-78
2023/08/02 09:50:33;;;;;;;14.90;1.90;;;21.90;57.70;;;;;;4867791;29;20065;-77
2023/08/02 09:53:15;;;;;;;18.40;2.20;;;21.60;58.80;;;;;;4867469;29;20058;-78
2023/08/02 09:55:44;;;;;;;15.02;1.48;;;21.60;58.90;;;;;;4866391;29;20124;-77
2023/08/02 09:58:12;;;;;;;9.40;1.90;;;22.00;58.50;;;;;;4867681;29;20014;-78
2023/08/02 10:00:39;;;;;;;8.77;3.00;;;22.70;58.10;;;;;;4876891;29;20112;-77
2023/08/02 10:03:06;;;;;;;11.93;1.67;;;23.10;56.30;;;;;;4869228;29;20036;-78
2023/08/02 10:05:33;;;;;;;12.50;2.33;;;23.40;54.50;;;;;;4885988;29;20025;-78
2023/08/02 10:08:01;;;;;;;9.82;1.55;;;23.80;55.10;;;;;;4885731;29;20013;-78
2023/08/02 10:10:31;;;;;;;10.35;1.83;;;23.80;55.50;;;;;;4876109;29;20135;-78
2023/08/02 10:13:06;;;;;;;14.40;1.92;;;23.40;54.90;;;;;;4886018;29;20039;-77
2023/08/02 10:15:32;;;;;;;11.57;1.70;;;22.90;57.10;;;;;;4868863;29;20030;-78
2023/08/02 10:17:59;;;;;;;8.52;1.58;;;22.20;58.00;;;;;;4884190;29;20025;-77
2023/08/02 10:20:25;;;;;;;15.05;2.13;;;22.00;59.20;;;;;;4868872;29;20029;-77
2023/08/02 10:22:52;;;;;;;13.77;1.85;;;22.10;59.20;;;;;;4885823;29;20092;-78
2023/08/02 10:25:19;;;;;;;10.52;2.47;;;22.00;60.30;;;;;;4885808;29;20072;-77
2023/08/02 10:27:46;;;;;;;19.70;2.28;;;21.80;59.90;;;;;;4885729;29;20032;-77
2023/08/02 10:30:12;;;;;;;13.35;2.35;;;21.50;61.60;;;;;;4885327;29;20033;-77
2023/08/02 10:32:38;;;;;;;12.93;1.83;;;21.30;61.80;;;;;;4885681;29;20033;-77
2023/08/02 10:35:04;;;;;;;11.65;1.88;;;21.30;63.00;;;;;;4885435;29;20374;-78
2023/08/02 10:37:54;;;;;;;14.50;1.75;;;21.20;62.60;;;;;;4868767;29;20437;-77
2023/08/02 10:40:21;;;;;;;22.45;2.30;;;21.10;63.10;;;;;;4885377;29;20080;-78
2023/08/02 10:43:05;;;;;;;15.52;2.05;;;21.10;63.00;;;;;;4885490;29;20047;-77
2023/08/02 10:45:30;;;;;;;16.42;2.05;;;21.20;63.10;;;;;;4885336;29;20033;-78
2023/08/02 10:48:28;;;;;;;16.45;2.25;;;21.40;62.00;;;;;;4885286;29;20191;-78
2023/08/02 10:50:56;;;;;;;12.23;1.90;;;21.30;63.10;;;;;;4885278;29;20480;-77
2023/08/02 10:53:22;;;;;;;16.35;2.22;;;21.20;62.80;;;;;;4885163;29;20029;-77
2023/08/02 10:56:16;;;;;;;23.00;2.33;;;21.20;63.50;;;;;;4885251;29;20077;-78
2023/08/02 10:58:49;;;;;;;15.27;1.65;;;20.90;61.70;;;;;;4868368;29;20025;-78
2023/08/02 11:01:15;;;;;;;16.02;2.05;;;20.90;62.60;;;;;;4868463;29;20040;-77
2023/08/02 11:03:41;;;;;;;20.83;2.38;;;20.80;63.10;;;;;;4885101;29;20025;-77
2023/08/02 11:06:06;;;;;;;14.65;2.17;;;20.80;62.80;;;;;;4874374;29;20503;-78
2023/08/02 11:08:45;;;;;;;16.77;2.05;;;20.80;64.60;;;;;;4866037;29;20025;-77
2023/08/02 11:11:11;;;;;;;17.65;2.15;;;21.20;63.40;;;;;;4866490;29;20033;-77
2023/08/02 11:13:40;;;;;;;19.85;2.22;;;21.20;62.60;;;;;;4878782;29;20036;-77
2023/08/02 11:16:06;;;;;;;16.05;2.30;;;21.30;62.30;;;;;;4884757;29;20441;-78
2023/08/02 11:18:33;;;;;;;15.73;2.85;;;21.50;63.00;;;;;;4884681;29;20021;-78
2023/08/02 11:21:10;;;;;;;17.33;2.30;;;21.70;62.70;;;;;;4884507;29;20389;-77
2023/08/02 11:23:35;;;;;;;14.15;3.30;;;21.70;62.60;;;;;;4884585;29;20423;-78
2023/08/02 11:26:12;;;;;;;22.17;2.67;;;21.80;61.90;;;;;;4884718;29;20067;-78
2023/08/02 11:28:43;;;;;;;18.42;2.45;;;21.80;62.30;;;;;;4884633;29;20032;-77
2023/08/02 11:31:09;;;;;;;14.00;2.78;;;21.60;63.80;;;;;;4883092;29;20056;-77
2023/08/02 11:33:36;;;;;;;18.38;2.72;;;21.40;63.20;;;;;;4884679;29;20049;-78
2023/08/02 11:36:02;;;;;;;15.73;3.33;;;21.30;63.80;;;;;;4874415;29;20393;-77
2023/08/02 11:38:29;;;;;;;24.48;3.60;;;21.30;63.90;;;;;;4865780;29;20029;-77
2023/08/02 11:40:55;;;;;;;19.38;2.25;;;21.40;62.50;;;;;;4866113;29;20506;-78
2023/08/02 11:43:34;;;;;;;14.25;2.30;;;21.50;63.40;;;;;;4865813;29;20082;-78
2023/08/02 11:46:00;;;;;;;20.85;3.30;;;21.30;63.30;;;;;;4865727;29;20468;-78
2023/08/02 11:48:26;;;;;;;15.63;2.17;;;21.20;64.40;;;;;;4865745;29;20029;-78
2023/08/02 11:50:54;;;;;;;16.48;2.25;;;21.20;64.70;;;;;;4865756;29;20113;-78
2023/08/02 11:53:19;;;;;;;27.45;3.03;;;21.10;64.50;;;;;;4865619;29;20476;-77
2023/08/02 11:55:45;;;;;;;17.05;2.40;;;21.00;64.30;;;;;;4865570;29;20052;-78
2023/08/02 11:58:11;;;;;;;18.77;2.60;;;21.10;64.60;;;;;;4864323;29;20018;-77
2023/08/02 12:00:38;;;;;;;19.60;3.00;;;21.20;64.30;;;;;;4867277;29;20021;-77
2023/08/02 12:03:22;;;;;;;22.40;2.90;;;21.40;64.20;;;;;;4877090;29;20020;-78
2023/08/02 12:05:59;;;;;;;17.27;2.78;;;21.30;64.80;;;;;;4894330;29;20029;-77
2023/08/02 12:08:24;;;;;;;11.57;2.10;;;21.30;65.30;;;;;;4883858;29;20052;-77
2023/08/02 12:10:51;;;;;;;16.75;2.55;;;21.60;64.90;;;;;;4884042;29;20032;-77
2023/08/02 12:13:17;;;;;;;16.80;2.60;;;21.90;63.70;;;;;;4883912;29;20024;-78
2023/08/02 12:16:04;;;;;;;22.77;3.10;;;21.60;64.10;;;;;;4883810;29;20468;-77
2023/08/02 12:18:30;;;;;;;19.25;2.60;;;21.70;64.00;;;;;;4867182;29;20030;-77
2023/08/02 12:20:55;;;;;;;26.77;3.45;;;21.60;64.30;;;;;;4883919;29;20117;-77
2023/08/02 12:23:35;;;;;;;22.88;3.55;;;21.60;65.40;;;;;;4882684;29;20025;-77
2023/08/02 12:26:01;;;;;;;22.65;2.67;;;21.80;64.60;;;;;;4883629;29;20579;-77
2023/08/02 12:28:43;;;;;;;21.15;2.58;;;21.80;64.60;;;;;;4883982;29;20459;-78
2023/08/02 12:31:08;;;;;;;20.45;2.88;;;21.60;65.20;;;;;;4865969;29;20516;-77
2023/08/02 12:33:34;;;;;;;25.75;3.35;;;21.60;65.30;;;;;;4883836;29;20124;-78
2023/08/02 12:36:00;;;;;;;11.48;2.17;;;21.30;65.70;;;;;;4883655;29;20061;-78
2023/08/02 12:38:29;;;;;;;16.30;2.13;;;21.30;65.70;;;;;;4883625;29;20088;-78
2023/08/02 12:40:59;;;;;;;12.55;2.80;;;21.40;65.60;;;;;;4883725;29;20025;-78
2023/08/02 12:43:26;;;;;;;19.48;2.63;;;21.30;66.00;;;;;;4866653;29;20395;-79
2023/08/02 12:45:52;;;;;;;18.02;3.47;;;21.50;66.40;;;;;;4883589;29;20484;-78
2023/08/02 12:48:18;;;;;;;23.30;3.58;;;21.60;65.70;;;;;;4866966;29;20092;-78
2023/08/02 12:50:44;;;;;;;15.73;2.38;;;21.60;65.40;;;;;;4883683;29;20455;-78
2023/08/02 12:53:10;;;;;;;14.23;3.10;;;21.60;65.60;;;;;;4883345;29;20083;-78
2023/08/02 12:55:35;;;;;;;15.95;2.70;;;21.60;65.60;;;;;;4866847;29;20037;-78
2023/08/02 12:58:01;;;;;;;9.60;1.77;;;21.50;65.40;;;;;;4883564;29;20025;-77
2023/08/02 13:00:27;;;;;;;15.23;3.42;;;21.50;66.00;;;;;;4883701;29;20076;-78
2023/08/02 13:02:52;;;;;;;11.25;2.28;;;21.30;66.60;;;;;;4883340;29;20057;-78
2023/08/02 13:05:18;;;;;;;18.88;2.45;;;21.20;66.70;;;;;;4879013;29;20045;-77
2023/08/02 13:07:44;;;;;;;20.30;2.30;;;21.20;67.20;;;;;;4875635;29;20378;-78
2023/08/02 13:10:10;;;;;;;8.25;1.55;;;21.20;67.50;;;;;;4883424;29;20400;-77
2023/08/02 13:12:35;;;;;;;12.15;2.45;;;21.10;67.60;;;;;;4883426;29;20036;-78
2023/08/02 13:15:01;;;;;;;16.15;3.17;;;21.30;67.10;;;;;;4883234;29;20117;-78
2023/08/02 13:17:27;;;;;;;19.15;2.88;;;21.50;67.30;;;;;;4882132;29;20025;-78
2023/08/02 13:19:53;;;;;;;13.43;2.03;;;21.40;66.90;;;;;;4883541;29;20033;-78
2023/08/02 13:22:19;;;;;;;15.05;2.20;;;21.50;66.60;;;;;;4883119;29;20068;-78
2023/08/02 13:24:45;;;;;;;20.67;3.50;;;21.80;66.70;;;;;;4883304;29;20057;-78
2023/08/02 13:27:10;;;;;;;15.75;2.53;;;21.70;65.60;;;;;;4883315;29;20118;-78
2023/08/02 13:29:36;;;;;;;19.05;2.75;;;21.30;67.10;;;;;;4883279;29;20040;-77
2023/08/02 13:32:02;;;;;;;17.23;2.47;;;21.20;67.60;;;;;;4883001;29;20057;-78
2023/08/02 13:34:27;;;;;;;19.50;2.83;;;21.30;68.10;;;;;;4883057;29;20392;-78
2023/08/02 13:36:53;;;;;;;20.88;2.30;;;21.20;67.50;;;;;;4868348;29;20028;-78
2023/08/02 13:39:19;;;;;;;15.93;3.15;;;21.30;67.80;;;;;;4883194;29;20036;-78
2023/08/02 13:41:45;;;;;;;11.52;2.20;;;21.30;67.50;;;;;;4883217;29;20105;-78
2023/08/02 13:44:10;;;;;;;18.77;3.25;;;21.20;67.70;;;;;;4886225;29;20032;-77
2023/08/02 13:46:36;;;;;;;18.33;2.83;;;21.30;68.60;;;;;;4886906;29;20392;-78
2023/08/02 13:49:01;;;;;;;17.67;3.22;;;21.30;68.70;;;;;;4886412;29;20056;-78
2023/08/02 13:51:27;;;;;;;26.45;3.25;;;21.60;68.10;;;;;;4886475;29;20073;-77
2023/08/02 13:53:53;;;;;;;17.70;2.85;;;21.80;67.40;;;;;;4886160;29;20112;-78
2023/08/02 13:56:19;;;;;;;20.42;3.50;;;22.10;66.70;;;;;;4869454;29;20029;-77
2023/08/02 13:58:45;;;;;;;22.58;3.03;;;22.20;66.60;;;;;;4886298;29;20045;-77
2023/08/02 14:01:11;;;;;;;13.52;2.50;;;22.00;65.40;;;;;;4885912;29;20040;-77
2023/08/02 14:03:37;;;;;;;14.20;2.28;;;21.80;65.90;;;;;;4886094;29;20029;-77
2023/08/02 14:06:03;;;;;;;13.75;2.53;;;21.60;66.80;;;;;;4869259;29;20029;-78
2023/08/02 14:08:29;;;;;;;19.05;2.35;;;21.30;67.00;;;;;;4885762;29;20108;-78
2023/08/02 14:10:55;;;;;;;16.17;2.75;;;21.30;68.60;;;;;;4869268;29;20402;-78
2023/08/02 14:13:21;;;;;;;13.02;2.20;;;21.20;70.80;;;;;;4885665;29;20039;-78
2023/08/02 14:15:47;;;;;;;10.80;2.08;;;21.30;70.70;;;;;;4887733;29;20036;-78
2023/08/02 14:18:13;;;;;;;9.18;1.92;;;21.40;69.90;;;;;;4904586;29;20036;-78
2023/08/02 14:20:38;;;;;;;17.63;2.53;;;21.50;68.50;;;;;;4904643;29;20104;-77
2023/08/02 14:23:04;;;;;;;15.60;2.20;;;21.70;68.70;;;;;;4887476;29;20024;-78
2023/08/02 14:25:29;;;;;;;16.30;2.00;;;21.60;68.80;;;;;;4869925;29;20029;-78
2023/08/02 14:27:55;;;;;;;13.77;2.63;;;21.60;68.10;;;;;;4867162;29;20028;-78
2023/08/02 14:30:20;;;;;;;15.20;2.47;;;21.60;68.60;;;;;;4866954;29;20473;-78
2023/08/02 14:32:46;;;;;;;12.68;2.47;;;21.70;67.80;;;;;;4867117;29;20485;-78
2023/08/02 14:35:12;;;;;;;12.60;2.20;;;21.80;67.90;;;;;;4870378;29;20037;-78
2023/08/02 14:37:38;;;;;;;18.55;2.20;;;21.90;67.30;;;;;;4885439;29;20032;-78
2023/08/02 14:40:04;;;;;;;13.40;2.63;;;22.00;66.10;;;;;;4885577;29;20021;-78
2023/08/02 14:42:30;;;;;;;10.13;1.98;;;21.90;66.30;;;;;;4885353;29;20021;-77
2023/08/02 14:44:56;;;;;;;11.05;2.42;;;21.70;67.50;;;;;;4885528;29;20115;-77
2023/08/02 14:47:21;;;;;;;14.75;2.20;;;21.50;68.50;;;;;;4885362;29;20025;-77
2023/08/02 14:49:47;;;;;;;10.43;1.77;;;21.30;69.10;;;;;;4885364;29;20399;-78
2023/08/02 14:52:13;;;;;;;10.93;1.75;;;21.50;69.20;;;;;;4868494;29;20395;-78
2023/08/02 14:54:38;;;;;;;13.50;2.08;;;21.80;69.00;;;;;;4884437;29;20115;-78
2023/08/02 14:57:05;;;;;;;12.93;1.63;;;21.80;69.20;;;;;;4885546;29;20032;-78
2023/08/02 14:59:32;;;;;;;14.00;2.67;;;21.80;68.80;;;;;;4886873;29;20025;-78
2023/08/02 15:01:58;;;;;;;17.10;2.88;;;21.80;68.60;;;;;;4885204;29;20032;-77
2023/08/02 15:04:23;;;;;;;12.38;2.08;;;21.90;68.70;;;;;;4885297;29;20365;-78
2023/08/02 15:06:50;;;;;;;22.25;2.55;;;22.00;67.10;;;;;;4884624;29;20052;-77
2023/08/02 15:09:16;;;;;;;17.45;2.95;;;22.20;66.30;;;;;;4868114;29;20435;-77
2023/08/02 15:11:42;;;;;;;8.85;1.60;;;22.10;66.90;;;;;;4868550;29;20031;-78
2023/08/02 15:14:08;;;;;;;13.13;1.85;;;22.10;66.20;;;;;;4884957;29;20040;-78
2023/08/02 15:16:34;;;;;;;14.95;2.72;;;22.00;64.70;;;;;;4868028;29;20025;-78
2023/08/02 15:18:59;;;;;;;13.48;2.28;;;21.90;64.00;;;;;;4884913;29;20032;-78
2023/08/02 15:21:25;;;;;;;13.48;2.03;;;21.90;63.80;;;;;;4884848;29;20183;-78
2023/08/02 15:23:51;;;;;;;9.45;2.25;;;22.00;64.30;;;;;;4884795;29;20039;-78
2023/08/02 15:26:17;;;;;;;19.80;2.40;;;22.00;64.10;;;;;;4884655;29;20025;-78
2023/08/02 15:28:42;;;;;;;14.55;1.80;;;21.80;64.40;;;;;;4884655;29;20044;-78
2023/08/02 15:31:08;;;;;;;13.18;2.65;;;21.60;65.20;;;;;;4884618;29;20161;-78
2023/08/02 15:33:33;;;;;;;13.43;2.17;;;21.70;65.50;;;;;;4867760;29;20036;-78
2023/08/02 15:35:59;;;;;;;20.52;3.33;;;21.70;65.20;;;;;;4884385;29;20030;-78
2023/08/02 15:38:25;;;;;;;16.83;2.22;;;21.60;65.80;;;;;;4867620;29;20494;-77
2023/08/02 15:40:53;;;;;;;13.55;1.60;;;21.60;65.60;;;;;;4884525;29;20543;-78
2023/08/02 15:43:20;;;;;;;20.80;2.58;;;21.60;65.60;;;;;;4884434;29;20109;-78
2023/08/02 15:45:45;;;;;;;14.40;2.35;;;21.50;66.00;;;;;;4884266;29;20066;-78
2023/08/02 15:48:11;;;;;;;21.33;2.65;;;21.30;65.70;;;;;;4884388;29;20033;-78
2023/08/02 15:50:37;;;;;;;20.08;3.42;;;21.30;66.90;;;;;;4884331;29;20021;-78
2023/08/02 15:53:03;;;;;;;15.43;2.20;;;21.20;66.30;;;;;;4884293;29;20036;-78
2023/08/02 15:55:28;;;;;;;17.88;3.88;;;21.30;66.60;;;;;;4884076;29;20029;-78
2023/08/02 15:57:54;;;;;;;16.45;1.98;;;21.30;65.50;;;;;;4867272;29;20029;-77
2023/08/02 16:00:20;;;;;;;15.90;2.20;;;21.20;65.00;;;;;;4883706;29;20444;-78
2023/08/02 16:02:45;;;;;;;13.10;2.05;;;21.30;65.50;;;;;;4883867;29;20040;-78
2023/08/02 16:05:11;;;;;;;13.20;1.90;;;21.20;65.80;;;;;;4883689;29;20029;-77
2023/08/02 16:07:37;;;;;;;17.05;2.50;;;21.20;65.90;;;;;;4895755;29;20036;-78
2023/08/02 16:10:03;;;;;;;12.07;1.98;;;21.00;66.30;;;;;;4902895;29;20491;-78
2023/08/02 16:12:28;;;;;;;13.20;2.42;;;21.20;66.00;;;;;;4902276;29;20517;-78
2023/08/02 16:14:54;;;;;;;9.05;2.17;;;21.20;65.90;;;;;;4902473;29;20027;-77
2023/08/02 16:17:20;;;;;;;14.93;2.15;;;21.30;66.40;;;;;;4902529;29;20024;-77
2023/08/02 16:19:45;;;;;;;11.30;2.17;;;21.10;66.00;;;;;;4902604;29;20028;-77
2023/08/02 16:22:11;;;;;;;14.60;2.20;;;21.00;66.50;;;;;;4867898;29;20096;-78
2023/08/02 16:24:36;;;;;;;11.55;1.80;;;21.00;67.20;;;;;;4865213;29;20110;-77
2023/08/02 16:27:03;;;;;;;8.63;1.52;;;21.00;66.50;;;;;;4865309;29;20056;-78
2023/08/02 16:29:28;;;;;;;17.23;2.40;;;20.90;67.00;;;;;;4865480;29;20025;-78
2023/08/02 16:31:54;;;;;;;16.38;2.53;;;20.90;67.20;;;;;;4863610;29;20093;-78
2023/08/02 16:34:20;;;;;;;15.23;2.20;;;20.80;67.00;;;;;;4864955;29;20041;-78
2023/08/02 16:36:45;;;;;;;16.35;2.10;;;20.80;67.70;;;;;;4880625;29;20503;-77
2023/08/02 16:39:12;;;;;;;11.23;2.40;;;20.80;67.70;;;;;;4883732;29;20497;-77
2023/08/02 16:41:37;;;;;;;15.27;1.95;;;20.90;67.70;;;;;;4883660;29;20025;-78
2023/08/02 16:44:03;;;;;;;14.88;2.03;;;20.80;68.50;;;;;;4883567;29;20032;-78
2023/08/02 16:46:29;;;;;;;14.43;1.92;;;20.70;68.60;;;;;;4883653;29;20116;-77
2023/08/02 16:48:54;;;;;;;13.98;1.95;;;20.60;68.80;;;;;;4883645;29;20032;-77
2023/08/02 16:51:20;;;;;;;10.80;1.90;;;20.70;68.70;;;;;;4883661;29;20600;-78
2023/08/02 16:53:46;;;;;;;16.38;2.30;;;20.80;68.50;;;;;;4883454;29;20036;-78
2023/08/02 16:56:12;;;;;;;12.32;1.92;;;20.80;68.40;;;;;;4883594;29;20085;-78
2023/08/02 16:58:37;;;;;;;14.63;2.70;;;21.00;67.80;;;;;;4883389;29;20108;-78
2023/08/02 17:01:03;;;;;;;14.80;1.80;;;21.10;66.80;;;;;;4885538;29;20065;-77
2023/08/02 17:03:29;;;;;;;15.77;2.38;;;21.10;67.20;;;;;;4883566;29;20017;-78
2023/08/02 17:05:56;;;;;;;14.98;2.60;;;20.90;67.70;;;;;;4874577;29;20565;-78
2023/08/02 17:08:22;;;;;;;13.35;1.80;;;20.80;68.20;;;;;;4864769;29;20045;-78